Time;durP1;ratioP1;P1;durP2;ratioP2;P2;SDS_P1;SDS_P2;PMS_P1;PMS_P2;Temp;Humidity;BMP_temperature;BMP_pressure;BME280_temperature;BME280_humidity;BME280_pressure;Samples;Min_cycle;Max_cycle;Signal;HPM_P1;HPM_P2
2024/01/28 00:00:56;;;;;;;23.52;8.57;;;0.80;99.90;;;;;;5032825;28;20405;-88
2024/01/28 00:03:22;;;;;;;13.90;6.57;;;0.80;99.90;;;;;;5033260;28;20026;-88
2024/01/28 00:05:47;;;;;;;18.63;6.57;;;0.80;99.90;;;;;;5033077;28;20037;-88
2024/01/28 00:08:13;;;;;;;21.98;6.60;;;0.80;99.90;;;;;;5034161;28;20024;-88
2024/01/28 00:10:38;;;;;;;18.23;6.60;;;0.90;99.90;;;;;;5026704;28;20075;-89
2024/01/28 00:13:04;;;;;;;27.83;7.78;;;0.90;99.90;;;;;;5032509;28;20033;-88
2024/01/28 00:15:30;;;;;;;22.95;6.90;;;1.00;99.90;;;;;;5034134;28;20025;-88
2024/01/28 00:17:55;;;;;;;18.30;6.45;;;1.00;99.90;;;;;;5033412;28;20021;-88
2024/01/28 00:20:21;;;;;;;17.65;5.95;;;1.10;99.90;;;;;;5031315;28;20033;-88
2024/01/28 00:22:47;;;;;;;17.20;7.00;;;1.20;99.90;;;;;;5032632;28;20059;-89
2024/01/28 00:25:13;;;;;;;21.15;7.25;;;1.20;99.90;;;;;;5028791;28;20026;-88
2024/01/28 00:27:39;;;;;;;21.95;7.07;;;1.20;99.90;;;;;;5032897;28;20577;-87
2024/01/28 00:30:05;;;;;;;19.85;6.22;;;1.20;99.90;;;;;;5025164;28;20113;-88
2024/01/28 00:32:31;;;;;;;19.42;7.97;;;1.20;99.90;;;;;;5031945;28;20410;-88
2024/01/28 00:34:56;;;;;;;22.65;7.50;;;1.20;99.90;;;;;;5032314;28;20030;-87
2024/01/28 00:37:23;;;;;;;18.17;8.20;;;1.20;99.90;;;;;;5033287;28;20049;-87
2024/01/28 00:39:49;;;;;;;17.35;6.97;;;1.30;99.90;;;;;;5031318;28;20563;-88
2024/01/28 00:42:16;;;;;;;20.35;8.38;;;1.20;99.90;;;;;;5033174;28;20045;-88
2024/01/28 00:44:41;;;;;;;18.90;6.70;;;1.20;99.90;;;;;;5030392;28;20033;-87
2024/01/28 00:47:07;;;;;;;17.40;7.07;;;1.20;99.90;;;;;;5032364;28;20482;-88
2024/01/28 00:49:32;;;;;;;19.73;6.80;;;1.10;99.90;;;;;;5032296;28;20021;-88
2024/01/28 00:51:59;;;;;;;17.35;6.95;;;1.10;99.90;;;;;;5032955;28;20029;-88
2024/01/28 00:54:25;;;;;;;17.60;7.30;;;1.10;99.90;;;;;;5033545;28;20033;-88
2024/01/28 00:56:52;;;;;;;21.25;6.72;;;1.10;99.90;;;;;;5032014;28;20032;-88
2024/01/28 00:59:18;;;;;;;19.67;7.32;;;1.10;99.90;;;;;;5031936;28;20029;-88
2024/01/28 01:01:44;;;;;;;18.58;6.85;;;1.10;99.90;;;;;;5029086;28;20075;-89
2024/01/28 01:04:10;;;;;;;22.20;6.72;;;1.10;99.90;;;;;;5033563;28;20025;-88
2024/01/28 01:06:37;;;;;;;19.92;7.15;;;1.00;99.90;;;;;;5033300;28;20064;-88
2024/01/28 01:09:03;;;;;;;24.40;7.18;;;1.00;99.90;;;;;;5031764;28;20025;-88
2024/01/28 01:11:29;;;;;;;23.80;7.20;;;0.90;99.90;;;;;;5032914;28;20033;-88
2024/01/28 01:13:54;;;;;;;17.90;7.32;;;0.90;99.90;;;;;;5032808;28;20060;-89
2024/01/28 01:16:20;;;;;;;17.88;6.38;;;0.80;99.90;;;;;;5032134;28;20032;-88
2024/01/28 01:18:46;;;;;;;19.80;6.63;;;0.70;99.90;;;;;;5031602;28;20089;-88
2024/01/28 01:21:11;;;;;;;17.35;6.60;;;0.70;99.90;;;;;;5031859;28;20060;-88
2024/01/28 01:23:37;;;;;;;18.65;7.63;;;0.60;99.90;;;;;;5031986;28;20075;-88
2024/01/28 01:26:03;;;;;;;17.88;7.07;;;0.50;99.90;;;;;;5031849;28;20167;-88
2024/01/28 01:28:31;;;;;;;15.85;6.65;;;0.50;99.90;;;;;;5031385;28;20054;-88
2024/01/28 01:31:02;;;;;;;17.27;6.40;;;0.50;99.90;;;;;;5031438;28;20042;-88
2024/01/28 01:33:28;;;;;;;17.80;7.35;;;0.40;99.90;;;;;;5031900;28;20113;-88
2024/01/28 01:35:54;;;;;;;16.92;7.70;;;0.40;99.90;;;;;;5031582;28;20109;-88
2024/01/28 01:38:20;;;;;;;17.52;7.68;;;0.40;99.90;;;;;;5031650;28;20028;-88
2024/01/28 01:40:46;;;;;;;24.10;8.10;;;0.40;99.90;;;;;;5030614;28;20489;-88
2024/01/28 01:43:13;;;;;;;23.38;8.05;;;0.40;99.90;;;;;;5023578;28;20125;-88
2024/01/28 01:45:40;;;;;;;18.45;7.30;;;0.40;99.90;;;;;;5027367;28;20048;-88
2024/01/28 01:48:16;;;;;;;16.98;7.10;;;0.30;99.90;;;;;;5031424;28;20029;-88
2024/01/28 01:50:43;;;;;;;19.60;7.05;;;0.30;99.90;;;;;;5027547;28;20405;-88
2024/01/28 01:53:10;;;;;;;20.85;7.32;;;0.30;99.90;;;;;;5031695;28;20030;-88
2024/01/28 01:55:37;;;;;;;17.60;6.28;;;0.30;99.90;;;;;;5031868;28;20040;-88
2024/01/28 01:58:04;;;;;;;22.95;7.53;;;0.30;99.90;;;;;;5031542;28;20026;-88
2024/01/28 02:00:31;;;;;;;25.95;8.10;;;0.30;99.90;;;;;;5031151;28;20116;-89
2024/01/28 02:02:57;;;;;;;16.60;7.55;;;0.20;99.90;;;;;;5031123;28;20481;-88
2024/01/28 02:05:22;;;;;;;16.58;7.20;;;0.20;99.90;;;;;;5024051;28;20070;-89
2024/01/28 02:07:49;;;;;;;21.80;8.38;;;0.20;99.90;;;;;;5031905;28;20087;-88
2024/01/28 02:10:15;;;;;;;18.13;6.97;;;0.20;99.90;;;;;;5035640;28;20116;-88
2024/01/28 02:12:43;;;;;;;21.30;7.72;;;0.20;99.90;;;;;;5035250;28;20592;-89
2024/01/28 02:15:10;;;;;;;20.73;7.88;;;0.10;99.90;;;;;;5034911;28;20091;-89
2024/01/28 02:17:36;;;;;;;21.23;7.93;;;0.10;99.90;;;;;;5035224;28;20021;-89
2024/01/28 02:20:02;;;;;;;20.27;8.10;;;0.10;99.90;;;;;;5034995;28;20048;-89
2024/01/28 02:22:28;;;;;;;18.08;7.53;;;0.10;99.90;;;;;;5035114;28;20048;-90
2024/01/28 02:24:54;;;;;;;18.92;7.45;;;0.10;99.90;;;;;;5034483;28;20021;-88
2024/01/28 02:27:20;;;;;;;24.02;9.50;;;0.10;99.90;;;;;;5034459;28;20058;-89
2024/01/28 02:29:45;;;;;;;25.20;7.90;;;0.10;99.90;;;;;;5034381;28;20056;-89
2024/01/28 02:32:14;;;;;;;22.77;7.32;;;0.10;99.90;;;;;;5035295;28;20029;-89
2024/01/28 02:34:40;;;;;;;20.48;7.45;;;0.10;99.90;;;;;;5034787;28;20033;-89
2024/01/28 02:37:06;;;;;;;24.77;8.10;;;0.00;99.90;;;;;;5033965;28;20029;-89
2024/01/28 02:39:31;;;;;;;24.23;7.95;;;0.00;99.90;;;;;;5035137;28;20025;-89
2024/01/28 02:41:57;;;;;;;18.05;7.13;;;0.10;99.90;;;;;;5034304;28;20511;-89
2024/01/28 02:44:22;;;;;;;16.88;7.53;;;0.00;99.90;;;;;;5034289;28;20022;-89
2024/01/28 02:46:48;;;;;;;17.92;5.95;;;0.10;99.90;;;;;;5034325;28;20084;-89
2024/01/28 02:49:13;;;;;;;23.60;7.38;;;0.10;99.90;;;;;;5034782;28;20030;-89
2024/01/28 02:51:44;;;;;;;19.63;7.70;;;0.10;99.90;;;;;;5034205;28;20022;-89
2024/01/28 02:54:09;;;;;;;18.48;7.88;;;0.20;99.90;;;;;;5034204;28;20544;-90
2024/01/28 02:56:35;;;;;;;20.40;7.60;;;0.20;99.90;;;;;;5034469;28;20083;-89
2024/01/28 02:59:01;;;;;;;22.48;6.78;;;0.30;99.90;;;;;;5034080;28;20108;-89
2024/01/28 03:01:27;;;;;;;18.40;6.60;;;0.20;99.90;;;;;;5035791;28;20481;-89
2024/01/28 03:03:52;;;;;;;17.42;6.97;;;0.30;99.90;;;;;;5034845;28;20039;-90
2024/01/28 03:06:18;;;;;;;23.58;7.32;;;0.30;99.90;;;;;;5034092;28;20547;-90
2024/01/28 03:08:44;;;;;;;15.18;6.90;;;0.30;99.90;;;;;;5034376;28;20025;-90
2024/01/28 03:11:10;;;;;;;24.52;8.13;;;0.30;99.90;;;;;;5035472;28;20561;-90
2024/01/28 03:13:36;;;;;;;23.05;7.55;;;0.30;99.90;;;;;;5033930;28;20049;-90
2024/01/28 03:16:03;;;;;;;22.33;7.32;;;0.40;99.90;;;;;;5033638;28;20041;-90
2024/01/28 03:18:28;;;;;;;17.92;6.70;;;0.40;99.90;;;;;;5033532;28;20022;-90
2024/01/28 03:20:54;;;;;;;20.85;6.68;;;0.30;99.90;;;;;;5033987;28;20036;-90
2024/01/28 03:23:19;;;;;;;19.50;6.35;;;0.30;99.90;;;;;;5034512;28;20017;-90
2024/01/28 03:25:45;;;;;;;21.75;6.18;;;0.30;99.90;;;;;;5032946;28;20176;-90
2024/01/28 03:28:11;;;;;;;19.45;5.65;;;0.30;99.90;;;;;;5033835;28;20077;-91
2024/01/28 03:30:37;;;;;;;23.05;6.22;;;0.30;99.90;;;;;;5033945;28;20111;-91
2024/01/28 03:33:02;;;;;;;23.48;6.88;;;0.20;99.90;;;;;;5033955;28;20061;-90
2024/01/28 03:35:28;;;;;;;15.52;6.47;;;0.20;99.90;;;;;;5034853;28;20029;-90
2024/01/28 03:37:54;;;;;;;21.90;7.38;;;0.20;99.90;;;;;;5033646;28;20446;-91
2024/01/28 03:40:20;;;;;;;21.23;6.45;;;0.20;99.90;;;;;;5032697;28;20014;-91
2024/01/28 03:42:45;;;;;;;25.02;6.63;;;0.20;99.90;;;;;;5033246;28;20034;-91
2024/01/28 03:45:11;;;;;;;18.88;5.93;;;0.20;99.90;;;;;;5025307;28;20036;-91
2024/01/28 03:47:37;;;;;;;19.63;6.07;;;0.20;99.90;;;;;;5033574;28;20077;-91
2024/01/28 03:50:06;;;;;;;20.17;6.47;;;0.20;99.90;;;;;;5033003;28;20442;-90
2024/01/28 03:52:32;;;;;;;19.65;5.50;;;0.20;99.90;;;;;;5033717;28;20048;-91
2024/01/28 03:54:57;;;;;;;27.27;7.07;;;0.20;99.90;;;;;;5033325;28;20029;-91
2024/01/28 03:57:23;;;;;;;15.82;6.38;;;0.20;99.90;;;;;;5033501;28;20025;-91
2024/01/28 03:59:48;;;;;;;17.00;6.55;;;0.20;99.90;;;;;;5033035;28;20493;-90
2024/01/28 04:02:15;;;;;;;23.15;6.75;;;0.20;99.90;;;;;;5033449;28;20045;-91
2024/01/28 04:04:40;;;;;;;16.60;6.05;;;0.20;99.90;;;;;;5024704;28;20018;-91
2024/01/28 04:07:06;;;;;;;18.83;6.15;;;0.20;99.90;;;;;;5032552;28;20071;-91
2024/01/28 04:09:32;;;;;;;20.42;6.75;;;0.20;99.90;;;;;;5033301;28;20022;-91
2024/01/28 04:11:59;;;;;;;16.95;5.80;;;0.20;99.90;;;;;;5033070;28;20025;-91
2024/01/28 04:14:24;;;;;;;22.20;7.97;;;0.20;99.90;;;;;;5033101;28;20516;-91
2024/01/28 04:16:50;;;;;;;23.63;6.47;;;0.20;99.90;;;;;;5032967;28;20029;-90
2024/01/28 04:19:16;;;;;;;18.13;6.63;;;0.10;99.90;;;;;;5032962;28;20048;-91
2024/01/28 04:21:41;;;;;;;16.52;5.60;;;0.20;99.90;;;;;;5032826;28;20105;-91
2024/01/28 04:24:07;;;;;;;10.45;5.68;;;0.10;99.90;;;;;;5032776;28;20034;-91
2024/01/28 04:26:33;;;;;;;19.60;8.35;;;0.10;99.90;;;;;;5032410;28;20389;-90
2024/01/28 04:28:59;;;;;;;17.13;6.30;;;0.10;99.90;;;;;;5032651;28;20091;-90
2024/01/28 04:31:26;;;;;;;17.35;6.97;;;0.10;99.90;;;;;;5032253;28;20037;-91
2024/01/28 04:33:54;;;;;;;12.80;6.10;;;0.10;99.90;;;;;;5032912;28;20022;-91
2024/01/28 04:36:19;;;;;;;19.45;7.25;;;0.10;99.90;;;;;;5032462;28;20061;-90
2024/01/28 04:38:45;;;;;;;19.60;6.57;;;0.10;99.90;;;;;;5031597;28;20064;-90
2024/01/28 04:41:10;;;;;;;16.23;7.00;;;0.10;99.90;;;;;;5032329;28;20592;-91
2024/01/28 04:43:38;;;;;;;20.05;7.18;;;0.10;99.90;;;;;;5032905;28;20060;-91
2024/01/28 04:46:04;;;;;;;18.33;6.78;;;0.20;99.90;;;;;;5032922;28;20076;-90
2024/01/28 04:48:29;;;;;;;20.20;7.45;;;0.20;99.90;;;;;;5032292;28;20025;-91
2024/01/28 04:50:55;;;;;;;21.38;7.57;;;0.20;99.90;;;;;;5031997;28;20037;-91
2024/01/28 04:53:21;;;;;;;16.17;5.75;;;0.20;99.90;;;;;;5029689;28;20060;-91
2024/01/28 04:55:46;;;;;;;21.98;6.95;;;0.20;99.90;;;;;;5031775;28;20033;-90
2024/01/28 04:58:12;;;;;;;22.00;7.57;;;0.30;99.90;;;;;;5032124;28;20024;-91
2024/01/28 05:00:37;;;;;;;22.80;7.82;;;0.30;99.90;;;;;;5032660;28;20025;-90
2024/01/28 05:03:03;;;;;;;17.85;6.30;;;0.30;99.90;;;;;;5032453;28;20036;-90
2024/01/28 05:05:29;;;;;;;23.90;6.53;;;0.30;99.90;;;;;;5031435;28;20025;-91
2024/01/28 05:07:54;;;;;;;19.40;6.97;;;0.30;99.90;;;;;;5028637;28;20033;-90
2024/01/28 05:10:20;;;;;;;16.17;5.90;;;0.40;99.90;;;;;;5031125;28;20116;-90
2024/01/28 05:12:45;;;;;;;20.20;6.43;;;0.40;99.90;;;;;;5032041;28;20018;-90
2024/01/28 05:15:16;;;;;;;17.58;5.93;;;0.40;99.90;;;;;;5032335;28;20022;-91
2024/01/28 05:17:42;;;;;;;24.15;6.32;;;0.40;99.90;;;;;;5031804;28;20060;-91
2024/01/28 05:20:11;;;;;;;17.67;6.55;;;0.40;99.90;;;;;;5031850;28;20038;-91
2024/01/28 05:22:38;;;;;;;20.33;6.05;;;0.50;99.90;;;;;;5031905;28;20033;-91
2024/01/28 05:25:04;;;;;;;14.68;6.22;;;0.50;99.90;;;;;;5031731;28;20018;-91
2024/01/28 05:27:30;;;;;;;20.52;7.15;;;0.50;99.90;;;;;;5031796;28;20038;-92
2024/01/28 05:29:58;;;;;;;17.98;6.15;;;0.50;99.90;;;;;;5031493;28;20120;-91
2024/01/28 05:32:25;;;;;;;19.00;5.53;;;0.40;99.90;;;;;;5033600;28;20017;-91
2024/01/28 05:34:51;;;;;;;18.80;6.55;;;0.40;99.90;;;;;;5031708;28;20036;-90
2024/01/28 05:37:16;;;;;;;14.52;6.53;;;0.40;99.90;;;;;;5030755;28;20093;-91
2024/01/28 05:39:42;;;;;;;20.75;6.32;;;0.40;99.90;;;;;;5031086;28;20036;-91
2024/01/28 05:42:08;;;;;;;22.45;6.07;;;0.40;99.90;;;;;;5031829;28;20497;-91
2024/01/28 05:44:33;;;;;;;14.68;5.95;;;0.40;99.90;;;;;;5031841;28;20014;-91
2024/01/28 05:46:59;;;;;;;15.63;5.57;;;0.40;99.90;;;;;;5031690;28;20026;-92
2024/01/28 05:49:25;;;;;;;17.55;6.55;;;0.30;99.90;;;;;;5031258;28;20477;-91
2024/01/28 05:51:50;;;;;;;24.75;5.95;;;0.30;99.90;;;;;;5031477;28;20056;-91
2024/01/28 05:54:16;;;;;;;20.08;7.07;;;0.30;99.90;;;;;;5032319;28;20113;-91
2024/01/28 05:56:42;;;;;;;14.18;5.82;;;0.30;99.90;;;;;;5031421;28;20114;-92
2024/01/28 05:59:08;;;;;;;17.40;5.68;;;0.30;99.90;;;;;;5023453;28;20116;-91
2024/01/28 06:01:33;;;;;;;21.95;6.82;;;0.30;99.90;;;;;;5031782;28;20037;-92
2024/01/28 06:03:59;;;;;;;20.40;6.85;;;0.30;99.90;;;;;;5031075;28;20028;-91
2024/01/28 06:06:25;;;;;;;18.42;7.30;;;0.30;99.90;;;;;;5031761;28;20065;-91
2024/01/28 06:08:50;;;;;;;23.75;8.43;;;0.30;99.90;;;;;;5028419;28;20033;-91
2024/01/28 06:11:17;;;;;;;12.63;5.40;;;0.30;99.90;;;;;;5031406;28;20033;-92
2024/01/28 06:13:42;;;;;;;17.38;6.28;;;0.30;99.90;;;;;;5031470;28;20026;-92
2024/01/28 06:16:08;;;;;;;15.73;5.88;;;0.30;99.90;;;;;;5031563;28;20545;-91
2024/01/28 06:18:41;;;;;;;17.60;6.15;;;0.30;99.90;;;;;;5031095;28;20386;-91
2024/01/28 06:21:06;;;;;;;18.13;6.10;;;0.30;99.90;;;;;;5031209;28;20486;-90
2024/01/28 06:23:32;;;;;;;17.65;6.53;;;0.30;99.90;;;;;;5031066;28;20056;-91
2024/01/28 06:25:57;;;;;;;19.25;5.43;;;0.30;99.90;;;;;;5031060;28;20389;-91
2024/01/28 06:28:23;;;;;;;15.18;6.10;;;0.30;99.90;;;;;;5030890;28;20136;-90
2024/01/28 06:30:49;;;;;;;20.40;7.20;;;0.30;99.90;;;;;;5030887;28;20021;-91
2024/01/28 06:33:16;;;;;;;20.80;7.10;;;0.20;99.90;;;;;;5031379;28;20038;-91
2024/01/28 06:35:41;;;;;;;20.63;6.93;;;0.30;99.90;;;;;;5031211;28;20025;-91
2024/01/28 06:38:07;;;;;;;16.90;6.68;;;0.30;99.90;;;;;;5028437;28;20025;-91
2024/01/28 06:40:32;;;;;;;19.92;6.90;;;0.30;99.90;;;;;;5025622;28;20044;-90
2024/01/28 06:42:58;;;;;;;17.30;6.53;;;0.30;99.90;;;;;;5031231;28;20030;-91
2024/01/28 06:45:24;;;;;;;20.48;7.05;;;0.30;99.90;;;;;;5031241;28;20018;-90
2024/01/28 06:47:50;;;;;;;15.05;6.45;;;0.30;99.90;;;;;;5027882;28;20049;-91
2024/01/28 06:50:16;;;;;;;22.02;9.40;;;0.30;99.90;;;;;;5031375;28;20022;-91
2024/01/28 06:52:42;;;;;;;16.45;7.18;;;0.20;99.90;;;;;;5030477;28;20028;-91
2024/01/28 06:55:08;;;;;;;16.48;6.57;;;0.20;99.90;;;;;;5033633;28;20036;-90
2024/01/28 06:57:34;;;;;;;19.77;6.38;;;0.20;99.90;;;;;;5028247;28;20026;-90
2024/01/28 07:00:00;;;;;;;23.88;7.97;;;0.20;99.90;;;;;;5032408;28;20116;-92
2024/01/28 07:02:25;;;;;;;19.02;6.95;;;0.20;99.90;;;;;;5034273;28;20033;-91
2024/01/28 07:04:51;;;;;;;26.00;8.30;;;0.20;99.90;;;;;;5035573;28;20029;-92
2024/01/28 07:07:16;;;;;;;17.60;7.20;;;0.20;99.90;;;;;;5035472;28;20551;-92
2024/01/28 07:09:42;;;;;;;18.08;7.15;;;0.20;99.90;;;;;;5039534;28;20047;-92
2024/01/28 07:12:08;;;;;;;13.23;6.03;;;0.20;99.90;;;;;;5042102;28;20059;-93
2024/01/28 07:14:34;;;;;;;20.27;7.00;;;0.30;99.90;;;;;;5034786;28;20503;-91
2024/01/28 07:17:00;;;;;;;16.77;6.78;;;0.20;99.90;;;;;;5034083;28;20108;-91
2024/01/28 07:19:25;;;;;;;17.98;6.40;;;0.20;99.90;;;;;;5034172;28;20049;-92
2024/01/28 07:21:51;;;;;;;22.33;6.45;;;0.20;99.90;;;;;;5034120;28;20139;-92
2024/01/28 07:24:17;;;;;;;14.10;6.22;;;0.20;99.90;;;;;;5033812;28;20036;-93
2024/01/28 07:26:43;;;;;;;21.27;6.95;;;0.20;99.90;;;;;;5034231;28;20037;-91
2024/01/28 07:29:10;;;;;;;24.00;7.75;;;0.20;99.90;;;;;;5030079;28;20493;-91
2024/01/28 07:31:35;;;;;;;19.48;7.10;;;0.20;99.90;;;;;;5034172;28;20504;-91
2024/01/28 07:34:03;;;;;;;20.85;6.75;;;0.20;99.90;;;;;;5034381;28;20109;-91
2024/01/28 07:36:30;;;;;;;19.92;6.72;;;0.20;99.90;;;;;;5034312;28;20033;-91
2024/01/28 07:38:56;;;;;;;17.80;6.43;;;0.20;99.90;;;;;;5033032;28;20029;-92
2024/01/28 07:41:22;;;;;;;24.45;6.68;;;0.20;99.90;;;;;;5033797;28;20041;-91
2024/01/28 07:43:47;;;;;;;15.52;5.80;;;0.20;99.90;;;;;;5033437;28;20539;-92
2024/01/28 07:46:13;;;;;;;17.80;7.38;;;0.20;99.90;;;;;;5034097;28;20017;-90
2024/01/28 07:48:39;;;;;;;17.00;5.97;;;0.20;99.90;;;;;;5032849;28;20056;-90
2024/01/28 07:51:05;;;;;;;17.35;6.60;;;0.20;99.90;;;;;;5033959;28;20441;-91
2024/01/28 07:53:30;;;;;;;12.60;6.15;;;0.20;99.90;;;;;;5033432;28;20041;-92
2024/01/28 07:55:57;;;;;;;15.77;6.43;;;0.20;99.90;;;;;;5033393;28;20025;-92
2024/01/28 07:58:23;;;;;;;17.15;5.97;;;0.20;99.90;;;;;;5030175;28;20076;-90
2024/01/28 08:00:48;;;;;;;19.45;5.68;;;0.20;99.90;;;;;;5033275;28;20030;-92
2024/01/28 08:03:14;;;;;;;14.23;6.07;;;0.20;99.90;;;;;;5033434;28;20029;-92
2024/01/28 08:05:40;;;;;;;14.15;6.13;;;0.20;99.90;;;;;;5032357;28;20024;-92
2024/01/28 08:08:06;;;;;;;18.73;5.72;;;0.20;99.90;;;;;;5028638;28;20781;-92
2024/01/28 08:10:32;;;;;;;16.13;5.25;;;0.30;99.90;;;;;;5033916;28;20024;-92
2024/01/28 08:12:58;;;;;;;15.77;5.75;;;0.30;99.90;;;;;;5033487;28;20466;-93
2024/01/28 08:15:23;;;;;;;16.25;5.65;;;0.30;99.90;;;;;;5034231;28;20424;-92
2024/01/28 08:17:50;;;;;;;14.80;6.10;;;0.40;99.90;;;;;;5034959;28;20087;-92
2024/01/28 08:20:17;;;;;;;13.40;5.50;;;0.40;99.90;;;;;;5037928;28;20409;-93
2024/01/28 08:22:42;;;;;;;13.93;5.75;;;0.40;99.90;;;;;;5035830;28;20044;-92
2024/01/28 08:25:09;;;;;;;16.77;5.68;;;0.50;99.90;;;;;;5035181;28;20018;-92
2024/01/28 08:27:35;;;;;;;14.05;4.95;;;0.50;99.90;;;;;;5035357;28;20045;-92
2024/01/28 08:30:00;;;;;;;13.40;5.25;;;0.60;99.90;;;;;;5034274;28;20067;-91
2024/01/28 08:32:26;;;;;;;16.60;5.53;;;0.70;99.90;;;;;;5034031;28;20028;-91
2024/01/28 08:34:52;;;;;;;11.68;5.03;;;0.70;99.90;;;;;;5034209;28;20436;-91
2024/01/28 08:37:17;;;;;;;20.35;5.28;;;0.80;99.90;;;;;;5032850;28;20017;-91
2024/01/28 08:39:43;;;;;;;15.40;5.38;;;0.90;99.90;;;;;;5032010;28;20079;-92
2024/01/28 08:42:09;;;;;;;10.57;4.65;;;1.00;99.90;;;;;;5031815;28;20116;-92
2024/01/28 08:44:35;;;;;;;13.95;5.28;;;1.00;99.90;;;;;;5032904;28;20482;-92
2024/01/28 08:47:01;;;;;;;12.55;4.35;;;1.10;99.90;;;;;;5032618;28;20033;-94
2024/01/28 08:49:27;;;;;;;15.20;4.88;;;1.10;99.90;;;;;;5032399;28;20021;-92
2024/01/28 08:51:52;;;;;;;10.88;4.07;;;1.30;99.90;;;;;;5031981;28;20044;-92
2024/01/28 08:54:18;;;;;;;12.48;4.13;;;1.30;99.90;;;;;;5031903;28;20017;-93
2024/01/28 08:56:44;;;;;;;13.13;4.45;;;1.30;99.90;;;;;;5032485;28;20033;-92
2024/01/28 08:59:09;;;;;;;16.15;5.32;;;1.40;99.90;;;;;;5030687;28;20017;-92
2024/01/28 09:01:35;;;;;;;13.18;4.55;;;1.50;99.90;;;;;;5032356;28;20140;-91
2024/01/28 09:04:00;;;;;;;14.07;4.80;;;1.60;99.90;;;;;;5033086;28;20025;-92
2024/01/28 09:06:26;;;;;;;14.85;5.50;;;1.60;99.90;;;;;;5032049;28;20072;-91
2024/01/28 09:08:52;;;;;;;19.95;5.05;;;1.70;99.90;;;;;;5031589;28;20025;-92
2024/01/28 09:11:17;;;;;;;12.48;4.40;;;1.70;99.90;;;;;;5033169;28;20375;-92
2024/01/28 09:13:43;;;;;;;11.10;4.57;;;1.80;99.90;;;;;;5032093;28;20048;-91
2024/01/28 09:16:09;;;;;;;14.23;4.63;;;1.90;99.90;;;;;;5032522;28;20044;-92
2024/01/28 09:18:34;;;;;;;14.55;4.70;;;2.00;99.90;;;;;;5032189;28;20037;-92
2024/01/28 09:21:00;;;;;;;14.57;4.15;;;2.00;99.90;;;;;;5019239;28;20053;-93
2024/01/28 09:23:25;;;;;;;17.25;5.57;;;2.10;99.90;;;;;;5028800;28;20072;-92
2024/01/28 09:25:51;;;;;;;11.85;4.75;;;2.20;99.90;;;;;;5032028;28;20060;-92
2024/01/28 09:28:17;;;;;;;11.88;3.88;;;2.30;99.90;;;;;;5032036;28;20041;-93
2024/01/28 09:30:43;;;;;;;12.13;4.57;;;2.30;99.90;;;;;;5032300;28;20032;-92
2024/01/28 09:33:12;;;;;;;13.35;4.40;;;2.40;99.90;;;;;;5032165;28;20393;-93
2024/01/28 09:35:39;;;;;;;16.92;5.45;;;2.50;99.90;;;;;;5032209;28;20021;-92
2024/01/28 09:38:06;;;;;;;17.27;4.30;;;2.60;99.90;;;;;;5031758;28;20026;-92
2024/01/28 09:40:32;;;;;;;10.88;4.30;;;2.60;99.90;;;;;;5031496;28;20025;-91
2024/01/28 09:43:16;;;;;;;19.65;4.20;;;2.70;99.90;;;;;;5031419;28;20396;-92
2024/01/28 09:45:41;;;;;;;13.05;4.07;;;2.80;99.90;;;;;;5031786;28;20025;-91
2024/01/28 09:48:07;;;;;;;9.52;4.72;;;2.90;99.90;;;;;;5031736;28;20133;-92
2024/01/28 09:50:33;;;;;;;8.32;3.65;;;2.90;99.90;;;;;;5032093;28;20022;-92
2024/01/28 09:52:58;;;;;;;12.68;4.40;;;3.00;99.90;;;;;;5031610;28;20492;-92
2024/01/28 09:55:24;;;;;;;10.38;3.78;;;3.10;99.90;;;;;;5031781;28;20021;-91
2024/01/28 09:57:50;;;;;;;9.40;4.22;;;3.20;99.90;;;;;;5031901;28;20105;-93
2024/01/28 10:00:16;;;;;;;9.48;3.83;;;3.20;99.90;;;;;;5031722;28;20067;-94
2024/01/28 10:02:42;;;;;;;9.05;3.45;;;3.30;99.90;;;;;;5031416;28;20034;-93
2024/01/28 10:05:10;;;;;;;9.20;3.63;;;3.40;99.90;;;;;;5031699;28;20076;-95
2024/01/28 10:07:43;;;;;;;15.32;4.32;;;3.50;99.90;;;;;;5019714;28;20344;-93
2024/01/28 10:10:08;;;;;;;11.10;3.50;;;3.60;99.90;;;;;;5031972;28;20068;-93
2024/01/28 10:12:34;;;;;;;12.57;4.03;;;3.60;99.90;;;;;;5031620;28;20033;-92
2024/01/28 10:15:00;;;;;;;14.07;3.70;;;3.70;99.90;;;;;;5031360;28;20381;-93
2024/01/28 10:17:25;;;;;;;9.25;3.55;;;3.80;99.90;;;;;;5031301;28;20025;-92
2024/01/28 10:19:51;;;;;;;9.23;3.20;;;3.80;99.90;;;;;;5031221;28;20024;-92
2024/01/28 10:22:17;;;;;;;8.68;3.47;;;3.90;99.90;;;;;;5031379;28;20098;-92
2024/01/28 10:24:44;;;;;;;11.18;2.88;;;4.00;99.90;;;;;;5031162;28;20026;-92
2024/01/28 10:27:10;;;;;;;8.05;3.30;;;4.00;99.90;;;;;;5031415;28;20174;-93
2024/01/28 10:29:38;;;;;;;10.45;3.60;;;4.10;99.90;;;;;;5033128;28;20505;-91
2024/01/28 10:32:04;;;;;;;11.10;3.42;;;4.20;99.90;;;;;;5034322;28;20029;-92
2024/01/28 10:34:30;;;;;;;9.73;3.50;;;4.20;99.90;;;;;;5034898;28;20092;-91
2024/01/28 10:36:56;;;;;;;11.43;4.38;;;4.30;99.90;;;;;;5034707;28;20405;-92
2024/01/28 10:39:22;;;;;;;9.48;3.10;;;4.40;99.90;;;;;;5034962;28;20018;-91
2024/01/28 10:41:55;;;;;;;9.45;3.00;;;4.40;99.90;;;;;;5034910;28;20037;-92
2024/01/28 10:44:21;;;;;;;;;;;4.50;99.90;;;;;;5035338;28;20022;-91
2024/01/28 10:46:53;;;;;;;8.65;2.75;;;4.50;99.90;;;;;;5034320;28;19905;-91
2024/01/28 10:49:26;;;;;;;11.82;3.50;;;4.50;99.90;;;;;;5034802;28;20521;-91
2024/01/28 10:51:54;;;;;;;9.35;2.70;;;4.60;99.90;;;;;;5034077;28;20040;-91
2024/01/28 10:54:20;;;;;;;13.02;3.30;;;4.70;99.90;;;;;;5034687;28;20144;-92
2024/01/28 10:56:46;;;;;;;9.32;3.20;;;4.80;99.90;;;;;;5034583;28;20049;-91
2024/01/28 10:59:13;;;;;;;10.93;3.05;;;4.90;99.90;;;;;;5034753;28;20478;-91
2024/01/28 11:01:40;;;;;;;8.45;3.00;;;5.00;99.90;;;;;;5034483;28;20045;-92
2024/01/28 11:04:05;;;;;;;12.27;3.08;;;5.10;99.90;;;;;;5034355;28;20044;-91
2024/01/28 11:06:31;;;;;;;6.75;2.80;;;5.10;99.90;;;;;;5034199;28;20026;-91
2024/01/28 11:08:58;;;;;;;10.25;2.80;;;5.20;99.90;;;;;;5034494;28;20132;-92
2024/01/28 11:11:24;;;;;;;10.43;2.97;;;5.20;99.90;;;;;;5034558;28;20060;-91
2024/01/28 11:13:50;;;;;;;10.52;3.20;;;5.30;99.90;;;;;;5034133;28;20026;-92
2024/01/28 11:16:18;;;;;;;9.75;3.17;;;5.30;99.90;;;;;;5034939;28;20029;-91
2024/01/28 11:18:58;;;;;;;7.82;2.78;;;5.40;99.90;;;;;;5034477;28;20032;-91
2024/01/28 11:21:26;;;;;;;13.35;4.95;;;5.50;99.90;;;;;;5015071;28;20172;-91
2024/01/28 11:23:53;;;;;;;13.07;3.70;;;5.50;99.90;;;;;;5033738;28;20036;-91
2024/01/28 11:26:19;;;;;;;7.78;2.83;;;5.50;99.90;;;;;;5033749;28;20026;-91
2024/01/28 11:28:50;;;;;;;5.70;2.50;;;5.60;99.90;;;;;;5031021;28;20056;-91
2024/01/28 11:31:32;;;;;;;6.65;2.08;;;5.60;99.90;;;;;;5032194;28;20037;-90
2024/01/28 11:34:27;;;;;;;8.25;2.72;;;5.70;99.90;;;;;;5033827;28;20026;-91
2024/01/28 11:36:53;;;;;;;11.48;3.20;;;5.80;99.90;;;;;;5016897;28;20033;-90
2024/01/28 11:39:46;;;;;;;10.02;2.00;;;5.90;99.90;;;;;;5034037;28;20033;-91
2024/01/28 11:42:12;;;;;;;7.28;2.72;;;5.90;99.90;;;;;;5034024;28;20036;-91
2024/01/28 11:44:40;;;;;;;9.43;2.72;;;6.00;99.90;;;;;;5033945;28;20029;-90
2024/01/28 11:47:06;;;;;;;8.48;2.58;;;6.00;99.90;;;;;;5033184;28;20096;-89
2024/01/28 11:49:33;;;;;;;6.78;2.28;;;6.10;99.90;;;;;;5034119;28;20103;-89
2024/01/28 11:51:59;;;;;;;6.05;2.13;;;6.20;99.90;;;;;;5032610;28;20025;-90
2024/01/28 11:54:24;;;;;;;5.05;1.92;;;6.30;99.90;;;;;;5033749;28;20083;-90
2024/01/28 11:56:50;;;;;;;7.72;2.50;;;6.40;99.90;;;;;;5033218;28;20052;-88
2024/01/28 11:59:16;;;;;;;8.77;2.60;;;6.40;99.90;;;;;;5033490;28;20083;-90
2024/01/28 12:01:41;;;;;;;5.60;2.20;;;6.50;99.90;;;;;;5033575;28;20614;-89
2024/01/28 12:04:09;;;;;;;6.00;2.15;;;6.50;99.90;;;;;;5033282;28;20022;-90
2024/01/28 12:06:36;;;;;;;6.88;2.22;;;6.70;99.90;;;;;;5033309;28;20031;-90
2024/01/28 12:09:02;;;;;;;5.63;2.30;;;6.80;99.90;;;;;;5026561;28;20421;-90
2024/01/28 12:11:28;;;;;;;9.98;3.50;;;6.80;99.90;;;;;;5023238;28;20022;-90
2024/01/28 12:13:55;;;;;;;6.32;2.08;;;6.90;99.90;;;;;;5032943;28;20025;-90
2024/01/28 12:16:24;;;;;;;7.78;1.83;;;7.00;99.90;;;;;;5033415;28;20087;-90
2024/01/28 12:18:54;;;;;;;6.78;1.77;;;7.10;99.90;;;;;;5033278;28;20071;-90
2024/01/28 12:21:21;;;;;;;6.18;1.98;;;7.20;99.90;;;;;;5032696;28;20031;-90
2024/01/28 12:23:51;;;;;;;6.43;1.88;;;7.20;99.90;;;;;;5032497;28;20021;-90
2024/01/28 12:26:17;;;;;;;10.40;2.15;;;7.30;99.90;;;;;;5032813;28;20116;-90
2024/01/28 12:28:45;;;;;;;6.90;1.95;;;7.40;99.90;;;;;;5032048;28;20122;-89
2024/01/28 12:31:11;;;;;;;4.85;1.38;;;7.40;99.90;;;;;;5032868;28;20026;-90
2024/01/28 12:33:36;;;;;;;7.25;1.75;;;7.50;99.90;;;;;;5032719;28;20018;-90
2024/01/28 12:36:02;;;;;;;5.50;1.90;;;7.60;99.90;;;;;;5032210;28;20512;-90
2024/01/28 12:38:28;;;;;;;4.70;1.55;;;7.60;99.90;;;;;;5032935;28;20064;-89
2024/01/28 12:40:54;;;;;;;8.23;1.92;;;7.70;99.90;;;;;;5024713;28;20043;-90
2024/01/28 12:43:20;;;;;;;6.45;1.42;;;7.80;99.90;;;;;;5032387;28;20021;-90